Tolar, New Mexico
Current Conditions -  °F | °C
As of 5:56 PM on Wednesday 22 Oct 2014 (Local Time) from K4MR Reporting Station
Clear Clear  
Wind Chill: 20°   Ceiling: Unl
Heat Index: 20°   Visibility: 10mi
Dew Point: 11°   Wind: 8mph
Humidity: 57%   Direction: 170°S
Pressure: 30.08"   Gusts: NA
Location:  34.3861°N, 104.044°W
Report Text: K4MR 222356Z AUTO 17007KT 10SM CLR 20/11 A3008 RMK AO2 SLP143 T02030114 10226 20190 55003
Loading
Personal Weather Stations






























Interactive Weather Map
Tropical Storm Tracking
New forecast layout! Learn more

10-Day Weather Forecast

Advertisements
Track Severe Weather on mobile